Time;durP1;ratioP1;P1;durP2;ratioP2;P2;SDS_P1;SDS_P2;PMS_P1;PMS_P2;Temp;Humidity;BMP_temperature;BMP_pressure;BME280_temperature;BME280_humidity;BME280_pressure;Samples;Min_cycle;Max_cycle;Signal;HPM_P1;HPM_P2
2023/02/01 00:01:22;;;;;;;14.23;10.35;;;;;;;8.99;55.17;99866.66;5010737;28;20018;-48
2023/02/01 00:03:48;;;;;;;18.50;9.90;;;;;;;8.72;55.89;99872.16;5011938;28;20420;-48
2023/02/01 00:06:14;;;;;;;18.73;10.55;;;;;;;8.65;56.71;99871.94;5011938;28;20018;-49
2023/02/01 00:08:39;;;;;;;13.80;10.20;;;;;;;8.82;57.14;99870.22;5010694;28;20034;-48
2023/02/01 00:11:10;;;;;;;13.32;10.40;;;;;;;9.01;56.06;99863.88;5011938;28;20022;-48
2023/02/01 00:13:38;;;;;;;14.52;10.95;;;;;;;9.03;55.87;99864.53;5010682;28;20058;-48
2023/02/01 00:16:07;;;;;;;9.18;7.40;;;;;;;9.17;55.47;99870.94;5011915;28;20030;-48
2023/02/01 00:18:33;;;;;;;13.85;8.18;;;;;;;9.32;55.05;99871.94;5010578;28;20025;-48
2023/02/01 00:20:59;;;;;;;11.15;7.18;;;;;;;9.47;54.61;99864.25;5010554;28;20112;-48
2023/02/01 00:23:25;;;;;;;12.18;8.35;;;;;;;9.48;54.01;99867.69;5010551;28;20482;-48
2023/02/01 00:25:50;;;;;;;15.10;10.02;;;;;;;9.25;54.43;99860.47;5011727;28;20029;-49
2023/02/01 00:28:16;;;;;;;17.27;11.32;;;;;;;8.99;55.42;99856.19;5011791;28;20109;-48
2023/02/01 00:30:41;;;;;;;13.75;9.40;;;;;;;8.95;55.88;99865.34;5012043;28;20018;-48
2023/02/01 00:33:08;;;;;;;15.30;9.63;;;;;;;8.92;55.73;99865.66;5010438;28;20030;-48
2023/02/01 00:35:34;;;;;;;16.30;9.70;;;;;;;8.97;56.04;99870.41;5011739;28;20369;-48
2023/02/01 00:38:01;;;;;;;16.70;9.15;;;;;;;9.07;55.85;99878.13;5011678;28;20105;-49
2023/02/01 00:40:26;;;;;;;15.30;10.27;;;;;;;9.15;56.09;99875.50;5011720;28;20500;-48
2023/02/01 00:42:52;;;;;;;19.13;10.68;;;;;;;9.28;55.96;99865.41;5011724;28;20077;-48
2023/02/01 00:45:18;;;;;;;20.55;11.32;;;;;;;9.40;55.39;99865.91;5010303;28;20018;-48
2023/02/01 00:47:43;;;;;;;19.70;10.60;;;;;;;9.26;55.68;99867.34;5011659;28;20523;-48
2023/02/01 00:50:10;;;;;;;15.23;10.15;;;;;;;9.27;55.65;99868.97;5011608;28;20546;-48
2023/02/01 00:52:35;;;;;;;16.85;10.93;;;;;;;9.46;56.21;99867.84;5011849;28;20056;-48
2023/02/01 00:55:01;;;;;;;17.15;10.90;;;;;;;9.63;56.02;99865.22;5026359;28;20507;-48
2023/02/01 00:57:26;;;;;;;14.75;9.77;;;;;;;9.62;55.14;99864.41;5017151;28;20022;-48
2023/02/01 00:59:52;;;;;;;17.00;9.70;;;;;;;9.63;55.07;99863.41;5017131;28;20025;-48
2023/02/01 01:02:17;;;;;;;14.95;10.32;;;;;;;9.53;54.87;99868.00;5034836;28;20018;-48
2023/02/01 01:04:43;;;;;;;16.38;10.75;;;;;;;9.34;55.06;99866.56;5034722;28;20035;-49
2023/02/01 01:07:09;;;;;;;17.73;9.93;;;;;;;9.30;55.75;99871.28;5034761;28;20024;-48
2023/02/01 01:09:35;;;;;;;17.75;11.15;;;;;;;9.36;55.21;99872.44;5016998;28;20068;-49
2023/02/01 01:12:02;;;;;;;14.85;9.75;;;;;;;9.42;55.47;99870.94;5034645;28;20502;-49
2023/02/01 01:14:32;;;;;;;18.88;10.50;;;;;;;9.42;55.28;99869.16;5034702;28;20105;-49
2023/02/01 01:16:57;;;;;;;13.98;10.40;;;;;;;9.30;55.61;99876.53;5016764;28;20100;-48
2023/02/01 01:19:23;;;;;;;15.35;10.02;;;;;;;9.26;55.58;99877.84;5016794;28;20483;-49
2023/02/01 01:21:48;;;;;;;13.50;9.35;;;;;;;9.31;55.81;99875.53;5034454;28;20564;-48
2023/02/01 01:24:14;;;;;;;12.88;8.68;;;;;;;9.51;55.50;99881.28;5016695;28;20029;-48
2023/02/01 01:26:40;;;;;;;15.82;10.65;;;;;;;9.53;55.24;99883.75;5016542;28;20514;-48
2023/02/01 01:29:06;;;;;;;20.45;9.77;;;;;;;9.32;55.37;99879.81;5034276;28;20505;-49
2023/02/01 01:31:31;;;;;;;17.13;9.85;;;;;;;9.10;55.55;99876.00;5016548;28;20112;-49
2023/02/01 01:33:59;;;;;;;17.13;10.98;;;;;;;8.95;56.29;99869.75;5016446;28;20029;-48
2023/02/01 01:36:26;;;;;;;14.60;10.00;;;;;;;8.70;56.32;99879.34;5016400;28;20241;-48
2023/02/01 01:38:52;;;;;;;18.80;9.32;;;;;;;8.51;56.65;99883.03;5034156;28;20499;-48
2023/02/01 01:41:28;;;;;;;14.65;10.70;;;;;;;8.53;56.98;99878.44;5000037;28;20171;-48
2023/02/01 01:43:55;;;;;;;15.75;10.27;;;;;;;8.45;56.85;99878.41;5034149;28;20406;-49
2023/02/01 01:46:27;;;;;;;22.88;10.23;;;;;;;8.45;57.84;99878.41;5033946;28;20050;-49
2023/02/01 01:49:05;;;;;;;22.20;11.07;;;;;;;8.60;57.35;99880.28;5016437;28;20030;-49
2023/02/01 01:51:35;;;;;;;17.50;9.05;;;;;;;8.58;57.25;99876.19;5016372;28;20030;-49
2023/02/01 01:54:17;;;;;;;14.77;9.88;;;;;;;8.53;57.73;99876.69;5016650;28;20454;-49
2023/02/01 01:56:44;;;;;;;15.10;9.65;;;;;;;8.55;57.75;99889.56;5033742;28;20034;-48
2023/02/01 01:59:12;;;;;;;17.45;10.35;;;;;;;8.59;57.52;99890.91;5033730;28;20470;-48
2023/02/01 02:01:37;;;;;;;22.27;11.68;;;;;;;8.69;57.51;99880.31;5033765;28;20017;-48
2023/02/01 02:04:04;;;;;;;18.90;11.55;;;;;;;8.55;57.37;99884.34;5015948;28;20041;-49
2023/02/01 02:06:37;;;;;;;19.58;12.98;;;;;;;8.42;57.56;99879.56;5015051;28;20101;-49
2023/02/01 02:09:03;;;;;;;25.15;12.95;;;;;;;8.30;57.75;99886.81;5033541;28;20041;-49
2023/02/01 02:11:33;;;;;;;22.92;13.88;;;;;;;8.07;57.96;99890.94;5015820;28;20115;-49
2023/02/01 02:14:00;;;;;;;18.38;12.88;;;;;;;8.02;58.48;99883.56;4999486;28;20034;-49
2023/02/01 02:16:41;;;;;;;20.08;12.80;;;;;;;7.93;58.76;99884.50;5033426;28;20025;-48
2023/02/01 02:19:20;;;;;;;36.47;19.83;;;;;;;7.79;59.21;99884.06;5033441;28;20033;-48
2023/02/01 02:22:01;;;;;;;22.27;16.00;;;;;;;7.84;58.96;99877.56;5015583;28;20570;-49
2023/02/01 02:25:02;;;;;;;27.27;15.15;;;;;;;7.89;58.91;99883.16;5033396;28;20087;-48
2023/02/01 02:27:49;;;;;;;24.10;13.13;;;;;;;7.90;58.92;99876.94;5025035;28;20038;-48
2023/02/01 02:30:40;;;;;;;19.85;12.50;;;;;;;7.98;59.20;99872.59;5033241;28;20034;-48
2023/02/01 02:33:33;;;;;;;19.35;12.50;;;;;;;7.79;58.74;99872.81;5015453;28;20143;-48
2023/02/01 02:36:32;;;;;;;19.77;11.18;;;;;;;7.22;60.78;99873.16;5033143;28;20044;-49
2023/02/01 02:39:25;;;;;;;19.88;12.32;;;;;;;6.92;61.36;99866.50;5033292;28;20406;-48
2023/02/01 02:48:28;;;;;;;17.73;11.88;;;;;;;7.20;61.67;99851.59;5033253;28;20403;-48
2023/02/01 03:05:05;;;;;;;15.88;10.60;;;;;;;7.47;60.52;99844.66;5032813;28;20787;-48
2023/02/01 03:07:54;;;;;;;20.52;11.02;;;;;;;7.45;60.63;99842.19;5014777;28;20030;-48
2023/02/01 03:10:37;;;;;;;16.42;10.82;;;;;;;7.52;60.81;99842.38;5014704;28;20079;-48
2023/02/01 03:13:29;;;;;;;20.27;12.60;;;;;;;7.29;60.28;99832.44;5014752;28;20037;-48
2023/02/01 03:16:15;;;;;;;22.60;12.63;;;;;;;6.96;62.32;99839.13;5018224;28;20069;-49
2023/02/01 03:18:46;;;;;;;19.35;12.30;;;;;;;6.81;62.76;99846.66;5032176;28;20104;-48
2023/02/01 03:21:22;;;;;;;18.40;11.23;;;;;;;6.74;63.13;99845.59;5014553;28;20029;-48
2023/02/01 03:23:50;;;;;;;19.33;10.88;;;;;;;6.71;62.96;99846.72;5032311;28;20104;-48
2023/02/01 03:26:19;;;;;;;16.92;10.93;;;;;;;6.69;62.93;99846.03;5032120;28;20020;-48
2023/02/01 03:28:51;;;;;;;42.55;34.00;;;;;;;6.68;63.53;99856.59;5032054;28;20033;-48
2023/02/01 03:31:17;;;;;;;29.90;20.05;;;;;;;6.56;63.57;99859.44;5014443;28;20124;-48
2023/02/01 03:33:43;;;;;;;27.55;14.55;;;;;;;6.43;64.50;99865.94;5014296;28;20558;-48
2023/02/01 03:36:24;;;;;;;17.88;11.32;;;;;;;6.41;64.38;99860.88;5014289;28;20030;-48
2023/02/01 03:39:03;;;;;;;21.65;10.48;;;;;;;6.43;64.53;99861.53;5032023;28;20506;-48
2023/02/01 03:41:51;;;;;;;17.75;10.88;;;;;;;6.58;65.00;99865.31;5031953;28;20499;-48
2023/02/01 03:44:41;;;;;;;14.90;11.02;;;;;;;6.81;64.14;99867.53;5023689;28;20041;-48
2023/02/01 03:47:10;;;;;;;15.13;9.68;;;;;;;6.91;63.19;99864.88;5014167;28;20029;-48
2023/02/01 03:49:43;;;;;;;16.52;9.75;;;;;;;6.87;63.42;99861.72;5031758;28;20483;-48
2023/02/01 03:52:16;;;;;;;18.40;10.50;;;;;;;6.85;63.57;99863.66;5032105;28;20029;-48
2023/02/01 03:54:44;;;;;;;16.27;9.75;;;;;;;6.90;63.99;99860.59;5013778;28;20053;-48
2023/02/01 03:57:20;;;;;;;18.73;10.35;;;;;;;6.92;64.22;99856.91;5031693;28;20033;-48
2023/02/01 03:59:45;;;;;;;19.48;10.55;;;;;;;6.93;64.09;99855.09;5031713;28;20128;-48
2023/02/01 04:02:11;;;;;;;17.95;9.70;;;;;;;6.97;63.34;99861.66;5031731;28;20100;-48
2023/02/01 04:04:37;;;;;;;19.10;11.15;;;;;;;7.05;63.71;99864.34;5014101;28;20018;-48
2023/02/01 04:07:03;;;;;;;14.30;9.70;;;;;;;7.20;63.34;99854.19;5031560;28;20032;-48
2023/02/01 04:09:29;;;;;;;14.10;10.68;;;;;;;7.14;62.29;99858.25;5031679;28;20510;-48
2023/02/01 04:11:55;;;;;;;20.35;10.38;;;;;;;7.06;62.11;99868.59;5031893;28;20025;-48
2023/02/01 04:14:20;;;;;;;16.40;10.60;;;;;;;7.03;62.79;99863.69;5031643;28;20700;-49
2023/02/01 04:16:46;;;;;;;15.60;9.27;;;;;;;7.21;62.85;99861.06;5031586;28;20025;-48
2023/02/01 04:19:12;;;;;;;16.20;10.13;;;;;;;7.27;62.36;99863.09;5013856;28;20036;-48
2023/02/01 04:21:37;;;;;;;15.25;10.27;;;;;;;7.25;62.36;99859.00;5031532;28;20033;-48
2023/02/01 04:24:04;;;;;;;16.52;9.75;;;;;;;7.35;62.37;99864.94;5013837;28;20403;-49
2023/02/01 04:26:29;;;;;;;13.45;10.65;;;;;;;7.29;62.17;99866.38;5031466;28;20101;-48
2023/02/01 04:28:55;;;;;;;21.58;10.68;;;;;;;7.44;62.49;99868.44;5031580;28;20463;-49
2023/02/01 04:31:27;;;;;;;16.88;10.05;;;;;;;7.76;62.14;99871.28;5016506;28;20071;-49
2023/02/01 04:33:54;;;;;;;18.35;9.43;;;;;;;8.02;61.67;99861.84;5035482;28;20044;-49
2023/02/01 04:36:21;;;;;;;16.88;10.43;;;;;;;8.20;60.65;99859.97;5017668;28;20071;-49
2023/02/01 04:38:48;;;;;;;16.67;9.73;;;;;;;8.32;60.48;99863.13;5035298;28;20064;-49
2023/02/01 04:41:15;;;;;;;14.75;9.48;;;;;;;8.46;59.94;99867.81;5017477;28;20071;-48
2023/02/01 04:43:41;;;;;;;15.85;9.80;;;;;;;8.58;59.45;99865.72;5035147;28;20419;-48
2023/02/01 04:46:06;;;;;;;14.25;9.70;;;;;;;8.74;59.53;99863.16;5035086;28;20048;-48
2023/02/01 04:48:32;;;;;;;14.93;9.70;;;;;;;8.86;59.18;99874.16;5035095;28;20466;-48
2023/02/01 04:50:58;;;;;;;19.45;10.48;;;;;;;8.94;59.23;99868.94;5017284;28;20021;-48
2023/02/01 04:53:23;;;;;;;17.05;9.57;;;;;;;8.98;59.36;99872.88;5035094;28;20029;-49
2023/02/01 04:55:49;;;;;;;19.55;9.88;;;;;;;9.06;58.50;99877.31;5034251;28;20088;-49
2023/02/01 04:58:15;;;;;;;16.13;10.00;;;;;;;9.03;58.39;99884.66;5034965;28;20041;-48
2023/02/01 05:00:41;;;;;;;17.80;9.07;;;;;;;8.95;58.20;99877.59;5034888;28;20017;-49
2023/02/01 05:03:07;;;;;;;23.83;10.38;;;;;;;8.90;58.67;99880.72;5034867;28;20025;-49
2023/02/01 05:05:32;;;;;;;19.58;10.07;;;;;;;8.90;58.61;99880.72;5034689;28;20028;-49
2023/02/01 05:07:58;;;;;;;13.05;9.10;;;;;;;8.77;58.36;99889.03;5016940;28;20029;-48
2023/02/01 05:10:24;;;;;;;17.38;9.77;;;;;;;8.70;58.47;99890.63;5016949;28;20028;-49
2023/02/01 05:15:34;;;;;;;19.10;9.73;;;;;;;8.78;58.38;99879.38;5034965;28;20041;-48
2023/02/01 05:17:59;;;;;;;13.18;9.05;;;;;;;8.79;57.86;99883.63;5016762;28;20025;-49
2023/02/01 05:20:25;;;;;;;13.52;9.50;;;;;;;8.73;57.44;99882.47;5016743;28;20102;-49
2023/02/01 05:22:50;;;;;;;21.55;11.57;;;;;;;8.65;57.42;99879.81;5034536;28;20555;-48
2023/02/01 05:25:16;;;;;;;13.57;8.48;;;;;;;8.55;57.95;99877.34;5034404;28;20017;-49
2023/02/01 05:27:42;;;;;;;16.73;9.57;;;;;;;8.43;58.10;99880.38;5034372;28;20029;-48
2023/02/01 05:30:08;;;;;;;15.65;8.43;;;;;;;8.29;58.51;99881.75;5034356;28;20029;-48
2023/02/01 05:32:34;;;;;;;12.15;8.82;;;;;;;8.22;58.47;99884.16;5034518;28;20029;-48
2023/02/01 05:35:00;;;;;;;12.88;7.78;;;;;;;8.22;58.64;99883.34;5016690;28;20517;-48
2023/02/01 05:37:25;;;;;;;14.20;8.85;;;;;;;8.16;58.78;99879.56;5034197;28;20033;-48
2023/02/01 05:39:51;;;;;;;13.60;8.32;;;;;;;8.18;59.17;99886.28;5016438;28;20076;-49
2023/02/01 05:42:17;;;;;;;15.52;9.70;;;;;;;8.22;59.11;99893.81;5034095;28;20029;-49
2023/02/01 05:44:43;;;;;;;18.15;9.65;;;;;;;8.27;59.38;99879.31;5034110;28;20032;-49
2023/02/01 05:47:09;;;;;;;18.83;10.68;;;;;;;8.25;59.95;99878.63;4999922;28;20029;-49
2023/02/01 05:49:34;;;;;;;20.48;10.68;;;;;;;8.28;59.37;99888.78;5034195;28;20395;-49
2023/02/01 05:52:00;;;;;;;17.45;9.93;;;;;;;8.30;59.27;99880.78;5016148;28;20092;-48
2023/02/01 05:54:26;;;;;;;14.68;9.27;;;;;;;8.49;59.36;99882.34;5012692;28;20422;-48
2023/02/01 05:56:51;;;;;;;16.30;9.75;;;;;;;8.63;58.64;99889.59;5014119;28;20026;-49
2023/02/01 05:59:17;;;;;;;15.20;9.25;;;;;;;8.65;58.49;99895.50;5014103;28;20056;-49
2023/02/01 06:01:43;;;;;;;20.48;11.00;;;;;;;8.60;58.40;99895.16;5014023;28;20385;-49
2023/02/01 06:04:08;;;;;;;23.98;9.27;;;;;;;8.44;59.22;99902.97;5014040;28;20028;-48
2023/02/01 06:06:36;;;;;;;12.98;8.88;;;;;;;8.67;60.21;99905.81;5012609;28;20550;-48
2023/02/01 06:09:02;;;;;;;15.65;8.65;;;;;;;8.94;59.04;99904.78;5013835;28;20022;-48
2023/02/01 06:11:28;;;;;;;18.05;9.52;;;;;;;8.89;58.81;99897.38;5013828;28;20057;-49
2023/02/01 06:13:55;;;;;;;21.13;8.93;;;;;;;8.91;58.66;99905.91;5014082;28;20057;-49
2023/02/01 06:16:22;;;;;;;16.83;10.20;;;;;;;9.09;58.63;99904.97;5013811;28;20056;-49
2023/02/01 06:18:47;;;;;;;20.13;9.73;;;;;;;9.13;58.10;99901.06;5013730;28;20096;-48
2023/02/01 06:21:14;;;;;;;22.30;10.60;;;;;;;9.11;57.86;99910.88;5013572;28;20022;-48
2023/02/01 06:23:39;;;;;;;23.60;10.98;;;;;;;8.98;57.89;99906.09;5013868;28;20469;-48
2023/02/01 06:26:09;;;;;;;21.35;10.65;;;;;;;8.99;57.84;99910.34;5013496;28;20118;-49
2023/02/01 06:28:35;;;;;;;15.35;10.15;;;;;;;9.06;57.85;99910.53;5013568;28;20458;-49
2023/02/01 06:31:08;;;;;;;20.45;11.68;;;;;;;9.09;57.89;99918.06;5013476;28;20018;-49
2023/02/01 06:33:35;;;;;;;16.30;10.57;;;;;;;9.12;58.44;99923.00;5013498;28;20079;-48
2023/02/01 06:36:03;;;;;;;23.70;10.63;;;;;;;9.14;57.94;99918.41;5013625;28;20105;-49
2023/02/01 06:38:30;;;;;;;19.85;10.48;;;;;;;9.17;57.83;99931.19;5013267;28;20070;-49
2023/02/01 06:40:57;;;;;;;19.83;10.38;;;;;;;9.15;57.44;99930.50;5011991;28;20113;-48
2023/02/01 06:43:27;;;;;;;21.20;10.45;;;;;;;9.15;57.63;99927.91;5013297;28;20491;-49
2023/02/01 06:45:53;;;;;;;28.58;11.02;;;;;;;9.24;57.71;99928.75;5013175;28;20105;-49
2023/02/01 06:48:19;;;;;;;22.13;12.25;;;;;;;9.27;57.34;99942.31;5013459;28;20433;-49
2023/02/01 06:50:45;;;;;;;24.52;10.75;;;;;;;9.17;56.95;99939.84;5013110;28;20033;-48
2023/02/01 06:53:11;;;;;;;21.60;10.73;;;;;;;9.12;57.86;99947.38;5011362;28;20396;-49
2023/02/01 06:55:36;;;;;;;24.42;10.63;;;;;;;9.18;57.72;99945.94;5011507;28;20061;-49
2023/02/01 06:58:02;;;;;;;29.05;12.30;;;;;;;9.15;58.12;99941.81;5012964;28;20442;-48
2023/02/01 07:00:29;;;;;;;20.92;11.35;;;;;;;9.14;58.10;99947.22;5011653;28;20033;-48
2023/02/01 07:02:55;;;;;;;26.73;11.60;;;;;;;8.99;58.44;99945.22;5012892;28;20519;-48
2023/02/01 07:05:21;;;;;;;30.08;12.25;;;;;;;8.88;59.26;99955.16;5011432;28;20034;-48
2023/02/01 07:07:47;;;;;;;25.42;11.98;;;;;;;8.80;60.13;99950.72;5011522;28;20391;-49
2023/02/01 07:10:12;;;;;;;24.17;12.70;;;;;;;8.80;60.34;99948.91;5012800;28;20104;-49
2023/02/01 07:12:38;;;;;;;27.27;12.82;;;;;;;8.89;60.16;99954.16;5012715;28;20018;-48
2023/02/01 07:15:05;;;;;;;23.15;11.43;;;;;;;8.83;60.06;99954.78;5011385;28;20034;-48
2023/02/01 07:17:30;;;;;;;26.80;12.77;;;;;;;8.77;60.59;99970.16;5011326;28;20026;-49
2023/02/01 07:19:58;;;;;;;37.85;13.07;;;;;;;8.80;61.06;99976.88;5012617;28;20028;-48
2023/02/01 07:22:24;;;;;;;16.92;10.07;;;;;;;8.76;61.17;99976.38;5012581;28;20022;-48
2023/02/01 07:24:49;;;;;;;35.72;12.68;;;;;;;8.82;61.83;99981.97;5011268;28;20022;-49
2023/02/01 07:27:15;;;;;;;35.42;11.77;;;;;;;8.90;62.17;99988.06;5012404;28;20408;-48
2023/02/01 07:29:40;;;;;;;32.80;12.85;;;;;;;9.03;62.78;99997.25;5012386;28;20018;-49
2023/02/01 07:32:06;;;;;;;27.13;12.65;;;;;;;9.18;63.51;100000.94;5012424;28;20022;-49
2023/02/01 07:34:32;;;;;;;35.58;13.32;;;;;;;9.26;63.28;100000.13;5012424;28;20034;-48
2023/02/01 07:36:58;;;;;;;37.40;14.23;;;;;;;9.26;63.55;100000.94;5012337;28;20414;-49
2023/02/01 07:39:23;;;;;;;41.13;17.58;;;;;;;9.39;63.98;100009.16;5012333;28;20109;-49
2023/02/01 07:41:49;;;;;;;38.20;15.48;;;;;;;9.47;64.54;100015.41;5012285;28;20021;-48
2023/02/01 07:44:15;;;;;;;26.88;13.68;;;;;;;9.52;65.03;100013.97;5011008;28;20404;-48
2023/02/01 07:46:40;;;;;;;33.53;12.50;;;;;;;9.51;65.43;100014.91;5011036;28;20034;-48
2023/02/01 07:49:06;;;;;;;24.30;12.48;;;;;;;9.53;66.02;100012.16;5012218;28;20018;-48
2023/02/01 07:51:32;;;;;;;26.55;13.75;;;;;;;9.54;66.60;100017.25;5012175;28;20018;-48
2023/02/01 07:53:58;;;;;;;35.75;12.68;;;;;;;9.51;66.54;100011.50;5013012;28;20072;-49
2023/02/01 07:56:25;;;;;;;62.38;12.77;;;;;;;9.46;66.80;100000.69;5031852;28;20499;-49
2023/02/01 07:58:52;;;;;;;34.90;13.32;;;;;;;9.40;67.01;100002.94;5031851;28;20028;-48
2023/02/01 08:01:20;;;;;;;46.72;14.43;;;;;;;9.33;66.88;99991.47;5013971;28;20395;-48
2023/02/01 08:03:52;;;;;;;33.67;13.90;;;;;;;9.24;68.59;99995.06;5031731;28;20025;-48
2023/02/01 08:06:19;;;;;;;22.70;12.77;;;;;;;9.34;68.28;99981.81;5013140;28;20036;-49
2023/02/01 08:08:46;;;;;;;15.98;12.85;;;;;;;9.19;65.23;99982.44;5014048;28;20546;-48
2023/02/01 08:11:13;;;;;;;21.63;13.20;;;;;;;8.95;64.99;99991.03;5014425;28;20171;-48
2023/02/01 08:13:39;;;;;;;23.77;12.80;;;;;;;8.67;64.38;99985.19;5031659;28;20029;-48
2023/02/01 08:16:07;;;;;;;18.48;11.25;;;;;;;8.35;64.50;99983.13;5031642;28;20368;-48
2023/02/01 08:18:34;;;;;;;15.20;10.70;;;;;;;8.13;65.63;99977.44;5013796;28;20022;-48
2023/02/01 08:21:16;;;;;;;28.33;11.13;;;;;;;8.20;67.25;99964.56;5013726;28;20021;-48
2023/02/01 08:23:43;;;;;;;31.80;11.90;;;;;;;8.68;66.39;99967.66;5031522;28;20034;-48
2023/02/01 08:26:10;;;;;;;18.95;10.27;;;;;;;9.63;65.22;99968.25;5013700;28;20028;-48
2023/02/01 08:28:38;;;;;;;22.15;10.70;;;;;;;10.73;63.21;99983.59;5031519;28;20025;-48
2023/02/01 08:31:09;;;;;;;25.88;11.88;;;;;;;11.88;62.05;99996.94;5031742;28;20399;-49
2023/02/01 08:33:36;;;;;;;22.77;10.70;;;;;;;13.25;60.88;99994.03;5013771;28;20026;-49
2023/02/01 08:36:04;;;;;;;27.02;10.70;;;;;;;14.55;57.19;99986.91;5031382;28;20034;-49
2023/02/01 08:38:29;;;;;;;23.13;11.35;;;;;;;14.41;54.37;99988.63;5031445;28;20033;-49
2023/02/01 08:40:55;;;;;;;21.00;12.25;;;;;;;13.70;53.94;99986.84;5013603;28;20029;-49
2023/02/01 08:43:21;;;;;;;25.85;12.90;;;;;;;12.69;55.33;99985.84;5031410;28;20022;-49
2023/02/01 08:45:46;;;;;;;28.38;11.80;;;;;;;11.90;56.40;99988.91;5031281;28;20029;-49
2023/02/01 08:48:12;;;;;;;21.38;10.52;;;;;;;11.42;57.28;99988.22;5013552;28;20483;-49
2023/02/01 08:50:38;;;;;;;23.40;11.73;;;;;;;10.99;57.48;99986.78;5013554;28;20521;-49
2023/02/01 08:53:03;;;;;;;24.13;11.13;;;;;;;10.31;58.58;99977.63;5013558;28;20045;-49
2023/02/01 08:55:29;;;;;;;25.88;11.68;;;;;;;9.96;60.04;99989.25;5030978;28;20045;-49
2023/02/01 08:57:56;;;;;;;21.92;12.43;;;;;;;9.72;60.62;99988.28;5031321;28;20022;-49
2023/02/01 09:00:21;;;;;;;17.35;10.85;;;;;;;9.45;61.44;99989.34;5031236;28;20057;-49
2023/02/01 09:02:47;;;;;;;43.00;13.13;;;;;;;9.16;62.29;99992.41;5013547;28;20049;-49
2023/02/01 09:05:14;;;;;;;19.63;12.13;;;;;;;9.08;62.96;99995.00;5013295;28;20053;-49
2023/02/01 09:07:39;;;;;;;21.00;10.80;;;;;;;9.19;63.05;100005.16;4997255;28;20506;-49
2023/02/01 09:10:06;;;;;;;19.48;11.13;;;;;;;9.51;62.70;100007.06;5031387;28;20022;-49
2023/02/01 09:12:32;;;;;;;24.23;10.82;;;;;;;9.80;62.77;100011.06;5013420;28;20026;-48
2023/02/01 09:14:59;;;;;;;25.80;11.68;;;;;;;10.02;61.67;100022.72;5013436;28;20030;-49
2023/02/01 09:17:26;;;;;;;18.63;9.20;;;;;;;10.21;61.62;100034.66;4999608;28;20028;-49
2023/02/01 09:19:52;;;;;;;15.93;10.10;;;;;;;10.42;60.83;100033.38;5034906;28;20436;-49
2023/02/01 09:22:18;;;;;;;30.88;11.60;;;;;;;10.61;60.29;100030.41;5034591;28;20490;-49
2023/02/01 09:24:44;;;;;;;34.20;11.85;;;;;;;10.71;59.92;100028.41;5034587;28;20087;-48
2023/02/01 09:27:10;;;;;;;25.42;11.52;;;;;;;10.79;59.89;100038.06;5034445;28;20025;-48
2023/02/01 09:29:36;;;;;;;20.75;11.73;;;;;;;10.84;59.38;100034.94;5034471;28;20578;-48
2023/02/01 09:32:01;;;;;;;21.38;10.63;;;;;;;10.90;59.32;100036.88;5034336;28;20027;-48
2023/02/01 09:34:27;;;;;;;16.00;9.10;;;;;;;11.02;59.10;100045.22;5016538;28;20109;-49
2023/02/01 09:36:53;;;;;;;22.45;10.45;;;;;;;11.18;58.36;100053.03;5016507;28;20029;-48
2023/02/01 09:39:18;;;;;;;22.13;10.48;;;;;;;11.24;58.25;100065.50;5016426;28;20080;-49
2023/02/01 09:42:00;;;;;;;20.90;8.50;;;;;;;11.40;57.99;100054.09;5034147;28;20029;-48
2023/02/01 09:45:04;;;;;;;21.85;9.27;;;;;;;11.34;56.96;100062.66;5034033;28;20033;-48
2023/02/01 09:47:31;;;;;;;17.70;7.90;;;;;;;11.36;57.95;100071.19;5034164;28;20021;-48
2023/02/01 09:50:03;;;;;;;31.52;7.90;;;;;;;11.49;58.18;100071.47;5033934;28;20030;-49
2023/02/01 09:52:42;;;;;;;18.00;6.88;;;;;;;11.65;56.95;100081.09;5016275;28;20022;-49
2023/02/01 09:55:19;;;;;;;31.73;7.30;;;;;;;11.78;57.15;100077.88;5033720;28;20038;-49
2023/02/01 09:57:58;;;;;;;12.45;7.00;;;;;;;11.91;56.87;100077.34;5033980;28;20514;-49
2023/02/01 10:00:29;;;;;;;18.20;8.13;;;;;;;11.99;56.56;100078.13;5033962;28;20799;-48
2023/02/01 10:02:56;;;;;;;17.23;8.38;;;;;;;12.08;55.18;100076.22;5033910;28;20494;-48
2023/02/01 10:05:39;;;;;;;28.65;8.70;;;;;;;11.64;55.30;100079.44;5016021;28;20072;-48
2023/02/01 10:08:17;;;;;;;31.73;9.00;;;;;;;11.29;56.81;100086.00;5033752;28;20513;-49
2023/02/01 10:10:48;;;;;;;25.25;8.45;;;;;;;11.48;57.23;100095.31;5015897;28;20037;-48
2023/02/01 10:13:34;;;;;;;31.25;8.98;;;;;;;11.74;56.81;100085.28;5033718;28;20018;-49
2023/02/01 10:16:35;;;;;;;33.55;8.82;;;;;;;11.75;56.13;100100.09;5015838;28;20032;-49
2023/02/01 10:19:15;;;;;;;42.83;9.60;;;;;;;11.64;55.89;100103.09;5033605;28;20071;-49
2023/02/01 10:21:41;;;;;;;29.63;7.85;;;;;;;11.72;56.71;100116.22;5033518;28;20029;-49
2023/02/01 10:24:19;;;;;;;56.47;11.68;;;;;;;11.89;56.24;100114.34;5015533;28;20108;-49
2023/02/01 10:27:01;;;;;;;22.95;7.68;;;;;;;12.10;56.45;100115.53;5015565;28;20029;-48
2023/02/01 10:29:35;;;;;;;31.23;8.38;;;;;;;12.32;55.17;100113.91;4998490;28;20037;-48
2023/02/01 10:32:02;;;;;;;30.52;7.68;;;;;;;12.37;54.63;100111.53;5033525;28;20419;-49
2023/02/01 10:34:31;;;;;;;30.48;7.72;;;;;;;12.41;55.22;100118.09;5033220;28;20487;-49
2023/02/01 10:37:07;;;;;;;29.63;8.07;;;;;;;12.37;54.67;100111.53;5033244;28;20554;-49
2023/02/01 10:39:33;;;;;;;22.73;7.97;;;;;;;12.39;54.72;100109.56;5015483;28;20120;-49
2023/02/01 10:41:58;;;;;;;18.45;6.82;;;;;;;12.32;54.06;100106.81;5015331;28;20035;-49
2023/02/01 10:44:28;;;;;;;23.67;7.78;;;;;;;12.31;54.81;100102.53;5015178;28;20014;-49
2023/02/01 10:46:54;;;;;;;18.38;7.78;;;;;;;12.50;54.40;100101.25;5032979;28;20113;-49
2023/02/01 10:49:29;;;;;;;16.33;7.43;;;;;;;12.60;54.04;100106.28;5015130;28;20121;-49
2023/02/01 10:52:16;;;;;;;26.38;7.32;;;;;;;12.74;54.08;100094.13;5032927;28;20037;-49
2023/02/01 10:54:42;;;;;;;34.25;7.82;;;;;;;12.77;53.68;100089.28;5032641;28;20095;-49
2023/02/01 10:57:10;;;;;;;45.47;9.10;;;;;;;12.63;53.41;100082.19;5014933;28;20037;-49
2023/02/01 10:59:37;;;;;;;16.83;5.63;;;;;;;12.50;53.64;100080.19;5014958;28;20038;-49
2023/02/01 11:02:19;;;;;;;21.20;6.32;;;;;;;12.46;53.32;100086.81;5032626;28;20028;-49
2023/02/01 11:04:45;;;;;;;35.17;8.07;;;;;;;12.38;53.48;100068.44;5032668;28;20036;-48
2023/02/01 11:07:23;;;;;;;22.13;6.55;;;;;;;12.41;53.85;100064.63;5014852;28;20025;-49
2023/02/01 11:09:57;;;;;;;18.25;6.38;;;;;;;12.31;53.03;100060.41;5014809;28;20514;-49
2023/02/01 11:12:35;;;;;;;19.90;7.60;;;;;;;12.06;53.62;100051.91;5015478;28;20501;-48
2023/02/01 11:15:21;;;;;;;12.45;6.80;;;;;;;11.60;54.76;100044.78;5014653;28;20030;-49
2023/02/01 11:17:51;;;;;;;16.13;7.13;;;;;;;11.36;56.00;100037.03;5031878;28;20042;-49
2023/02/01 11:20:20;;;;;;;11.80;5.28;;;;;;;11.56;56.25;100042.66;5032205;28;20025;-49
2023/02/01 11:22:48;;;;;;;25.70;7.18;;;;;;;12.05;56.29;100036.28;5015021;28;20503;-49
2023/02/01 11:25:16;;;;;;;19.27;7.40;;;;;;;12.52;55.05;100032.59;4998117;28;20025;-49
2023/02/01 11:27:43;;;;;;;11.52;5.65;;;;;;;12.34;56.91;100023.22;5032258;28;20029;-49
2023/02/01 11:30:17;;;;;;;16.50;6.15;;;;;;;11.91;57.04;100015.03;5032453;28;20029;-48
2023/02/01 11:32:44;;;;;;;11.80;5.30;;;;;;;11.82;57.46;100028.38;5032215;28;20029;-48
2023/02/01 11:35:17;;;;;;;11.57;4.32;;;;;;;12.05;56.89;100016.06;5032029;28;20044;-49
2023/02/01 11:37:44;;;;;;;12.88;4.88;;;;;;;12.64;55.19;100015.38;5032122;28;20030;-48
2023/02/01 11:40:16;;;;;;;9.70;4.13;;;;;;;13.77;53.43;100006.19;5031890;28;20541;-48
2023/02/01 11:42:54;;;;;;;14.68;4.38;;;;;;;15.30;50.24;99998.44;5031978;28;20025;-49
2023/02/01 11:45:33;;;;;;;10.77;5.28;;;;;;;15.68;46.94;99997.94;5031881;28;20076;-49
2023/02/01 11:48:00;;;;;;;16.00;5.20;;;;;;;15.78;46.10;99990.44;5031923;28;20100;-49
2023/02/01 11:50:35;;;;;;;6.60;3.10;;;;;;;15.84;45.42;99988.03;5031966;28;20118;-49
2023/02/01 11:53:24;;;;;;;;;;;;;;;16.21;46.15;99983.13;4999122;28;20093;-49
2023/02/01 11:55:59;;;;;;;13.80;4.18;;;;;;;16.73;43.93;99982.19;5026012;28;19917;-47
2023/02/01 11:58:43;;;;;;;6.78;3.60;;;;;;;16.52;43.81;99985.09;4998402;28;20025;-47